createdAt,value
2018-12-09T00:00:35.837Z,0.00
2018-12-09T00:01:35.924Z,0.00
2018-12-09T00:02:35.813Z,0.00
2018-12-09T00:03:35.804Z,0.00
2018-12-09T00:04:35.794Z,0.00
2018-12-09T00:05:35.843Z,0.00
2018-12-09T00:06:35.786Z,0.00
2018-12-09T00:07:35.779Z,0.00
2018-12-09T00:08:35.754Z,0.00
2018-12-09T00:09:35.741Z,0.00
2018-12-09T00:10:35.730Z,0.00
2018-12-09T00:11:35.730Z,0.00
2018-12-09T00:12:35.706Z,0.00
2018-12-09T00:13:35.700Z,0.00
2018-12-09T00:14:35.719Z,0.00
2018-12-09T00:15:35.674Z,0.00
2018-12-09T00:16:35.895Z,0.00
2018-12-09T00:17:35.652Z,0.00
2018-12-09T00:18:35.642Z,0.00
2018-12-09T00:19:35.631Z,0.00
2018-12-09T00:20:35.627Z,0.00
2018-12-09T00:21:35.610Z,0.00
2018-12-09T00:22:35.612Z,0.00
2018-12-09T00:23:35.590Z,0.00
2018-12-09T00:24:35.577Z,0.00
2018-12-09T00:25:35.574Z,0.00
2018-12-09T00:26:35.560Z,0.00
2018-12-09T00:27:35.567Z,0.00
2018-12-09T00:28:35.537Z,0.00
2018-12-09T00:29:35.526Z,0.00
2018-12-09T00:30:35.514Z,0.00
2018-12-09T00:31:35.502Z,0.00
2018-12-09T00:32:35.506Z,0.00
2018-12-09T00:33:35.483Z,0.00
2018-12-09T00:34:35.473Z,0.00
2018-12-09T00:35:35.460Z,0.00
2018-12-09T00:36:35.448Z,0.00
2018-12-09T00:37:35.451Z,0.00
2018-12-09T00:38:35.430Z,0.00
2018-12-09T00:39:35.422Z,0.00
2018-12-09T00:40:35.454Z,0.00
2018-12-09T00:41:35.396Z,0.00
2018-12-09T00:42:43.251Z,0.00
2018-12-09T00:43:36.372Z,0.00
2018-12-09T00:44:35.363Z,0.00
2018-12-09T00:45:35.353Z,0.00
2018-12-09T00:46:35.345Z,0.00
2018-12-09T00:47:35.343Z,0.00
2018-12-09T00:48:35.319Z,0.00
2018-12-09T00:49:35.312Z,0.00
2018-12-09T00:50:35.302Z,0.00
2018-12-09T00:51:35.322Z,0.00
2018-12-09T00:52:35.303Z,0.00
2018-12-09T00:53:35.273Z,0.00
2018-12-09T00:54:35.264Z,0.00
2018-12-09T00:55:35.257Z,0.00
2018-12-09T00:56:35.235Z,0.00
2018-12-09T00:57:35.238Z,0.00
2018-12-09T00:58:35.214Z,0.00
2018-12-09T00:59:35.203Z,0.00
2018-12-09T01:00:35.193Z,0.00
2018-12-09T01:01:35.185Z,0.00
2018-12-09T01:02:35.185Z,0.00
2018-12-09T01:03:35.159Z,0.00
2018-12-09T01:04:35.150Z,0.00
2018-12-09T01:05:35.141Z,0.00
2018-12-09T01:06:35.128Z,0.00
2018-12-09T01:07:35.134Z,0.00
2018-12-09T01:08:35.115Z,0.00
2018-12-09T01:09:35.096Z,0.00
2018-12-09T01:10:35.109Z,0.00
2018-12-09T01:11:35.074Z,0.00
2018-12-09T01:12:35.078Z,0.00
2018-12-09T01:13:35.052Z,0.00
2018-12-09T01:14:35.047Z,0.00
2018-12-09T01:15:35.033Z,0.00
2018-12-09T01:16:35.020Z,0.00
2018-12-09T01:17:35.033Z,0.00
2018-12-09T01:18:35.000Z,0.00
2018-12-09T01:19:34.988Z,0.00
2018-12-09T01:20:34.988Z,0.00
2018-12-09T01:21:34.967Z,0.00
2018-12-09T01:22:34.970Z,0.00
2018-12-09T01:23:34.949Z,0.00
2018-12-09T01:24:34.934Z,0.00
2018-12-09T01:25:34.926Z,0.00
2018-12-09T01:26:34.915Z,0.00
2018-12-09T01:27:34.923Z,0.00
2018-12-09T01:28:34.897Z,0.00
2018-12-09T01:29:34.882Z,0.00
2018-12-09T01:30:34.871Z,0.00
2018-12-09T01:31:34.860Z,0.00
2018-12-09T01:32:34.865Z,0.00
2018-12-09T01:33:34.838Z,0.00
2018-12-09T01:34:34.830Z,0.00
2018-12-09T01:35:34.824Z,0.00
2018-12-09T01:36:34.811Z,0.00
2018-12-09T01:37:34.810Z,0.00
2018-12-09T01:38:34.785Z,0.00
2018-12-09T01:39:34.776Z,0.00
2018-12-09T01:40:34.764Z,0.00
2018-12-09T01:41:34.754Z,0.00
2018-12-09T01:42:34.762Z,0.00
2018-12-09T01:43:34.731Z,0.00
2018-12-09T01:44:34.720Z,0.00
2018-12-09T01:45:34.712Z,0.00
2018-12-09T01:46:34.700Z,0.00
2018-12-09T01:47:34.699Z,0.00
2018-12-09T01:48:34.699Z,0.00
2018-12-09T01:49:34.667Z,0.00
2018-12-09T01:50:34.656Z,0.00
2018-12-09T01:51:34.645Z,0.00
2018-12-09T01:52:34.635Z,0.00
2018-12-09T01:53:34.637Z,0.00
2018-12-09T01:54:34.621Z,0.00
2018-12-09T01:55:34.607Z,0.00
2018-12-09T01:56:34.592Z,0.00
2018-12-09T01:57:34.581Z,0.00
2018-12-09T01:58:34.585Z,0.00
2018-12-09T01:59:34.559Z,0.00
2018-12-09T02:00:34.549Z,0.00
2018-12-09T02:01:34.543Z,0.00
2018-12-09T02:02:34.528Z,0.00
2018-12-09T02:03:34.530Z,0.00
2018-12-09T02:04:34.506Z,0.00
2018-12-09T02:05:34.498Z,0.00
2018-12-09T02:06:34.490Z,0.00
2018-12-09T02:07:34.479Z,0.00
2018-12-09T02:08:34.479Z,0.00
2018-12-09T02:09:34.452Z,0.00
2018-12-09T02:10:34.443Z,0.00
2018-12-09T02:11:34.432Z,0.00
2018-12-09T02:12:34.420Z,0.00
2018-12-09T02:13:34.426Z,0.00
2018-12-09T02:14:34.399Z,0.00
2018-12-09T02:15:34.389Z,0.00
2018-12-09T02:16:34.377Z,0.00
2018-12-09T02:17:34.367Z,0.00
2018-12-09T02:18:34.370Z,0.00
2018-12-09T02:19:34.350Z,0.00
2018-12-09T02:20:34.338Z,0.00
2018-12-09T02:21:34.324Z,0.00
2018-12-09T02:22:34.316Z,0.00
2018-12-09T02:23:34.314Z,0.00
2018-12-09T02:24:34.291Z,0.00
2018-12-09T02:25:34.280Z,0.00
2018-12-09T02:26:34.270Z,0.00
2018-12-09T02:27:34.266Z,0.00
2018-12-09T02:28:34.261Z,0.00
2018-12-09T02:29:34.237Z,0.00
2018-12-09T02:30:34.229Z,0.00
2018-12-09T02:31:34.215Z,0.00
2018-12-09T02:32:34.204Z,0.00
2018-12-09T02:33:34.214Z,0.00
2018-12-09T02:34:34.184Z,0.00
2018-12-09T02:35:34.173Z,0.00
2018-12-09T02:36:34.162Z,0.00
2018-12-09T02:37:34.150Z,0.00
2018-12-09T02:38:34.154Z,0.00
2018-12-09T02:39:34.136Z,0.00
2018-12-09T02:40:34.118Z,0.00
2018-12-09T02:41:34.110Z,0.00
2018-12-09T02:42:34.096Z,0.00
2018-12-09T02:43:34.101Z,0.00
2018-12-09T02:44:34.076Z,0.00
2018-12-09T02:45:34.075Z,0.00
2018-12-09T02:46:34.057Z,0.00
2018-12-09T02:47:34.047Z,0.00
2018-12-09T02:48:34.044Z,0.00
2018-12-09T02:49:34.023Z,0.00
2018-12-09T02:50:34.010Z,0.00
2018-12-09T02:51:34.003Z,0.00
2018-12-09T02:52:33.993Z,0.00
2018-12-09T02:53:34.022Z,0.00
2018-12-09T02:54:33.969Z,0.00
2018-12-09T02:55:33.961Z,0.00
2018-12-09T02:56:34.024Z,0.00
2018-12-09T02:57:33.953Z,0.00
2018-12-09T02:58:33.942Z,0.00
2018-12-09T02:59:33.921Z,0.00
2018-12-09T03:00:33.904Z,0.00
2018-12-09T03:01:33.897Z,0.00
2018-12-09T03:02:33.888Z,0.00
2018-12-09T03:03:33.890Z,0.00
2018-12-09T03:04:33.860Z,0.00
2018-12-09T03:05:33.850Z,0.00
2018-12-09T03:06:33.842Z,0.00
2018-12-09T03:07:33.829Z,0.00
2018-12-09T03:08:33.838Z,0.00
2018-12-09T03:09:33.806Z,0.00
2018-12-09T03:10:33.796Z,0.00
2018-12-09T03:11:33.785Z,0.00
2018-12-09T03:12:33.773Z,0.00
2018-12-09T03:13:33.782Z,0.00
2018-12-09T03:14:33.752Z,0.00
2018-12-09T03:15:33.741Z,0.00
2018-12-09T03:16:33.732Z,0.00
2018-12-09T03:17:33.719Z,0.00
2018-12-09T03:18:33.722Z,0.00
2018-12-09T03:19:33.708Z,0.00
2018-12-09T03:20:33.687Z,0.00
2018-12-09T03:21:33.676Z,0.00
2018-12-09T03:22:33.665Z,0.00
2018-12-09T03:23:33.667Z,0.00
2018-12-09T03:24:33.643Z,0.00
2018-12-09T03:25:33.634Z,0.00
2018-12-09T03:26:33.624Z,0.00
2018-12-09T03:27:33.620Z,0.00
2018-12-09T03:28:33.614Z,0.00
2018-12-09T03:29:33.589Z,0.00
2018-12-09T03:30:33.579Z,0.00
2018-12-09T03:31:33.569Z,0.00
2018-12-09T03:32:33.558Z,0.00
2018-12-09T03:33:34.571Z,0.00
2018-12-09T03:34:33.540Z,0.00
2018-12-09T03:35:33.534Z,0.00
2018-12-09T03:36:33.514Z,0.00
2018-12-09T03:37:33.502Z,0.00
2018-12-09T03:38:33.505Z,0.00
2018-12-09T03:39:33.482Z,0.00
2018-12-09T03:40:33.472Z,0.00
2018-12-09T03:41:33.470Z,0.00
2018-12-09T03:42:33.450Z,0.00
2018-12-09T03:43:33.461Z,0.00
2018-12-09T03:44:33.429Z,0.00
2018-12-09T03:45:33.422Z,0.00
2018-12-09T03:46:33.425Z,0.00
2018-12-09T03:47:33.407Z,0.00
2018-12-09T03:48:33.416Z,0.00
2018-12-09T03:49:33.375Z,0.00
2018-12-09T03:50:33.373Z,0.00
2018-12-09T03:51:33.354Z,0.00
2018-12-09T03:52:33.349Z,0.00
2018-12-09T03:53:33.354Z,0.00
2018-12-09T03:54:33.327Z,0.00
2018-12-09T03:55:33.312Z,0.00
2018-12-09T03:56:33.302Z,0.00
2018-12-09T03:57:33.291Z,0.00
2018-12-09T03:58:33.292Z,0.00
2018-12-09T03:59:33.271Z,0.00
2018-12-09T04:00:33.259Z,0.00
2018-12-09T04:01:33.247Z,0.00
2018-12-09T04:02:33.240Z,0.00
2018-12-09T04:03:33.242Z,0.00
2018-12-09T04:04:33.222Z,0.00
2018-12-09T04:05:33.213Z,0.00
2018-12-09T04:06:33.199Z,0.00
2018-12-09T04:07:33.182Z,0.00
2018-12-09T04:08:33.189Z,0.00
2018-12-09T04:09:33.164Z,0.00
2018-12-09T04:10:33.150Z,0.00
2018-12-09T04:11:33.140Z,0.00
2018-12-09T04:12:33.131Z,0.00
2018-12-09T04:13:33.129Z,0.00
2018-12-09T04:14:33.108Z,0.00
2018-12-09T04:15:33.102Z,0.00
2018-12-09T04:16:33.086Z,0.00
2018-12-09T04:17:33.073Z,0.00
2018-12-09T04:18:33.082Z,0.00
2018-12-09T04:19:33.055Z,0.00
2018-12-09T04:20:33.042Z,0.00
2018-12-09T04:21:33.031Z,0.00
2018-12-09T04:22:33.023Z,0.00
2018-12-09T04:23:33.023Z,0.00
2018-12-09T04:24:32.999Z,0.00
2018-12-09T04:25:32.989Z,0.00
2018-12-09T04:26:32.992Z,0.00
2018-12-09T04:27:32.980Z,0.00
2018-12-09T04:28:32.974Z,0.00
2018-12-09T04:29:32.947Z,0.00
2018-12-09T04:30:32.938Z,0.00
2018-12-09T04:31:32.926Z,0.00
2018-12-09T04:32:32.916Z,0.00
2018-12-09T04:33:32.929Z,0.00
2018-12-09T04:34:32.905Z,0.00
2018-12-09T04:35:32.886Z,0.00
2018-12-09T04:36:32.873Z,0.00
2018-12-09T04:37:32.862Z,0.00
2018-12-09T04:38:32.865Z,0.00
2018-12-09T04:39:32.842Z,0.00
2018-12-09T04:40:32.836Z,0.00
2018-12-09T04:41:32.819Z,0.00
2018-12-09T04:42:32.814Z,0.00
2018-12-09T04:43:32.798Z,0.00
2018-12-09T04:44:32.803Z,0.00
2018-12-09T04:45:32.785Z,0.00
2018-12-09T04:46:32.767Z,0.00
2018-12-09T04:47:32.756Z,0.00
2018-12-09T04:48:32.746Z,0.00
2018-12-09T04:49:32.748Z,0.00
2018-12-09T04:50:32.724Z,0.00
2018-12-09T04:51:32.712Z,0.00
2018-12-09T04:52:32.707Z,0.00
2018-12-09T04:53:32.705Z,0.00
2018-12-09T04:54:32.703Z,0.00
2018-12-09T04:55:32.674Z,0.00
2018-12-09T04:56:32.666Z,0.00
2018-12-09T04:57:32.652Z,0.00
2018-12-09T04:58:32.644Z,0.00
2018-12-09T04:59:32.641Z,0.00
2018-12-09T05:00:32.616Z,0.00
2018-12-09T05:01:32.617Z,0.00
2018-12-09T05:02:32.597Z,0.00
2018-12-09T05:03:32.587Z,0.00
2018-12-09T05:04:32.587Z,0.00
2018-12-09T05:05:32.564Z,0.00
2018-12-09T05:06:32.561Z,0.00
2018-12-09T05:07:32.546Z,0.00
2018-12-09T05:08:32.534Z,0.00
2018-12-09T05:09:32.535Z,0.00
2018-12-09T05:10:32.513Z,0.00
2018-12-09T05:11:32.501Z,0.00
2018-12-09T05:12:32.499Z,0.00
2018-12-09T05:13:32.481Z,0.00
2018-12-09T05:14:32.483Z,0.00
2018-12-09T05:15:32.458Z,0.00
2018-12-09T05:16:32.449Z,0.00
2018-12-09T05:17:32.439Z,0.00
2018-12-09T05:18:32.436Z,0.00
2018-12-09T05:19:32.429Z,0.00
2018-12-09T05:20:32.406Z,0.00
2018-12-09T05:21:32.400Z,0.00
2018-12-09T05:22:32.385Z,0.00
2018-12-09T05:23:32.374Z,0.00
2018-12-09T05:24:32.382Z,0.00
2018-12-09T05:25:32.352Z,0.00
2018-12-09T05:26:32.341Z,0.00
2018-12-09T05:27:32.331Z,0.00
2018-12-09T05:28:32.320Z,0.00
2018-12-09T05:29:32.323Z,0.00
2018-12-09T05:30:32.308Z,0.00
2018-12-09T05:31:32.288Z,0.00
2018-12-09T05:32:32.277Z,0.00
2018-12-09T05:33:32.268Z,0.00
2018-12-09T05:34:32.269Z,0.00
2018-12-09T05:35:32.245Z,0.00
2018-12-09T05:36:32.243Z,0.00
2018-12-09T05:37:32.228Z,0.00
2018-12-09T05:38:32.214Z,0.00
2018-12-09T05:39:32.215Z,0.00
2018-12-09T05:40:32.194Z,0.00
2018-12-09T05:41:32.184Z,0.00
2018-12-09T05:42:32.173Z,0.00
2018-12-09T05:43:32.163Z,0.00
2018-12-09T05:44:32.168Z,0.00
2018-12-09T05:45:32.138Z,0.00
2018-12-09T05:46:32.131Z,0.00
2018-12-09T05:47:32.116Z,0.00
2018-12-09T05:48:32.106Z,0.00
2018-12-09T05:49:32.108Z,0.00
2018-12-09T05:50:32.095Z,0.00
2018-12-09T05:51:32.074Z,0.00
2018-12-09T05:52:32.065Z,0.00
2018-12-09T05:53:32.053Z,0.00
2018-12-09T05:54:32.055Z,0.00
2018-12-09T05:55:32.032Z,0.00
2018-12-09T05:56:32.028Z,0.00
2018-12-09T05:57:32.010Z,0.00
2018-12-09T05:58:32.000Z,0.00
2018-12-09T05:59:32.003Z,0.00
2018-12-09T06:00:31.981Z,0.00
2018-12-09T06:01:31.970Z,0.00
2018-12-09T06:02:31.967Z,0.00
2018-12-09T06:03:31.945Z,0.00
2018-12-09T06:04:31.935Z,0.00
2018-12-09T06:05:31.936Z,0.00
2018-12-09T06:06:31.916Z,0.00
2018-12-09T06:07:31.904Z,0.00
2018-12-09T06:08:31.908Z,0.00
2018-12-09T06:09:31.882Z,0.00
2018-12-09T06:10:31.885Z,0.00
2018-12-09T06:11:31.861Z,0.00
2018-12-09T06:12:31.851Z,0.00
2018-12-09T06:13:31.840Z,0.00
2018-12-09T06:14:31.833Z,0.00
2018-12-09T06:15:31.833Z,0.00
2018-12-09T06:16:31.811Z,0.00
2018-12-09T06:17:31.797Z,0.00
2018-12-09T06:18:31.786Z,0.00
2018-12-09T06:19:31.776Z,0.00
2018-12-09T06:20:31.793Z,0.00
2018-12-09T06:21:31.762Z,0.00
2018-12-09T06:22:31.746Z,0.00
2018-12-09T06:23:31.735Z,0.00
2018-12-09T06:24:31.722Z,0.00
2018-12-09T06:25:31.725Z,0.00
2018-12-09T06:26:31.708Z,0.00
2018-12-09T06:27:31.696Z,0.00
2018-12-09T06:28:31.680Z,0.00
2018-12-09T06:29:31.671Z,0.00
2018-12-09T06:30:31.670Z,0.00
2018-12-09T06:31:31.649Z,0.00
2018-12-09T06:32:31.643Z,0.00
2018-12-09T06:33:31.634Z,0.00
2018-12-09T06:34:31.617Z,0.00
2018-12-09T06:35:31.619Z,4.00
2018-12-09T06:36:31.596Z,4.00
2018-12-09T06:37:31.583Z,0.00
2018-12-09T06:38:31.589Z,4.00
2018-12-09T06:39:31.561Z,4.00
2018-12-09T06:40:31.568Z,4.00
2018-12-09T06:41:31.543Z,4.00
2018-12-09T06:42:31.529Z,4.00
2018-12-09T06:43:31.520Z,4.00
2018-12-09T06:44:31.521Z,4.00
2018-12-09T06:45:31.511Z,4.00
2018-12-09T06:46:31.488Z,8.00
2018-12-09T06:47:31.477Z,8.00
2018-12-09T06:48:31.467Z,12.00
2018-12-09T06:49:31.455Z,16.00
2018-12-09T06:50:31.548Z,20.00
2018-12-09T06:51:31.436Z,28.00
2018-12-09T06:52:31.425Z,44.00
2018-12-09T06:53:31.413Z,52.00
2018-12-09T06:54:31.403Z,56.00
2018-12-09T06:55:31.410Z,68.00
2018-12-09T06:56:31.390Z,80.00
2018-12-09T06:57:31.375Z,88.00
2018-12-09T06:58:31.363Z,96.00
2018-12-09T06:59:31.351Z,116.00
2018-12-09T07:00:31.353Z,128.00
2018-12-09T07:01:31.330Z,128.00
2018-12-09T07:02:31.324Z,152.00
2018-12-09T07:03:31.308Z,188.00
2018-12-09T07:04:31.295Z,212.00
2018-12-09T07:05:31.298Z,244.00
2018-12-09T07:06:31.274Z,240.00
2018-12-09T07:07:31.265Z,208.00
2018-12-09T07:08:31.258Z,164.00
2018-12-09T07:09:31.247Z,92.00
2018-12-09T07:10:31.244Z,76.00
2018-12-09T07:11:31.222Z,72.00
2018-12-09T07:12:31.215Z,88.00
2018-12-09T07:13:31.200Z,216.00
2018-12-09T07:14:31.196Z,288.00
2018-12-09T07:15:31.198Z,276.00
2018-12-09T07:16:31.177Z,228.00
2018-12-09T07:17:31.165Z,252.00
2018-12-09T07:18:31.146Z,296.00
2018-12-09T07:19:31.138Z,400.00
2018-12-09T07:20:31.138Z,460.00
2018-12-09T07:21:31.116Z,484.00
2018-12-09T07:22:31.113Z,444.00
2018-12-09T07:23:31.094Z,500.00
2018-12-09T07:24:31.083Z,580.00
2018-12-09T07:25:31.086Z,596.00
2018-12-09T07:26:31.062Z,576.00
2018-12-09T07:27:31.054Z,564.00
2018-12-09T07:28:31.045Z,648.00
2018-12-09T07:29:31.030Z,576.00
2018-12-09T07:30:31.034Z,556.00
2018-12-09T07:31:31.009Z,604.00
2018-12-09T07:32:30.999Z,640.00
2018-12-09T07:33:30.987Z,700.00
2018-12-09T07:34:30.989Z,832.00
2018-12-09T07:35:30.983Z,860.00
2018-12-09T07:36:30.956Z,780.00
2018-12-09T07:37:30.945Z,884.00
2018-12-09T07:38:30.937Z,1020.00
2018-12-09T07:39:30.928Z,1032.00
2018-12-09T07:40:30.950Z,956.00
2018-12-09T07:41:30.904Z,808.00
2018-12-09T07:42:30.896Z,648.00
2018-12-09T07:43:30.883Z,644.00
2018-12-09T07:44:30.873Z,716.00
2018-12-09T07:45:30.888Z,652.00
2018-12-09T07:46:30.868Z,640.00
2018-12-09T07:47:30.841Z,580.00
2018-12-09T07:48:30.830Z,572.00
2018-12-09T07:49:30.819Z,632.00
2018-12-09T07:50:30.813Z,588.00
2018-12-09T07:51:30.812Z,528.00
2018-12-09T07:52:30.792Z,532.00
2018-12-09T07:53:30.778Z,516.00
2018-12-09T07:54:30.768Z,560.00
2018-12-09T07:55:30.763Z,736.00
2018-12-09T07:56:30.763Z,688.00
2018-12-09T07:57:30.741Z,660.00
2018-12-09T07:58:30.724Z,720.00
2018-12-09T07:59:30.725Z,708.00
2018-12-09T08:00:30.709Z,888.00
2018-12-09T08:01:30.710Z,1220.00
2018-12-09T08:02:30.682Z,1728.00
2018-12-09T08:03:30.683Z,1280.00
2018-12-09T08:04:30.662Z,920.00
2018-12-09T08:05:30.657Z,992.00
2018-12-09T08:06:30.653Z,1336.00
2018-12-09T08:07:30.631Z,1508.00
2018-12-09T08:08:30.619Z,1532.00
2018-12-09T08:09:30.611Z,1500.00
2018-12-09T08:10:30.600Z,1268.00
2018-12-09T08:11:30.606Z,1064.00
2018-12-09T08:12:30.580Z,988.00
2018-12-09T08:13:30.581Z,840.00
2018-12-09T08:14:30.557Z,752.00
2018-12-09T08:15:30.550Z,752.00
2018-12-09T08:16:30.548Z,764.00
2018-12-09T08:17:30.527Z,752.00
2018-12-09T08:18:30.513Z,788.00
2018-12-09T08:19:30.511Z,796.00
2018-12-09T08:20:30.492Z,1060.00
2018-12-09T08:21:30.495Z,1248.00
2018-12-09T08:22:30.473Z,952.00
2018-12-09T08:23:30.460Z,780.00
2018-12-09T08:24:30.452Z,788.00
2018-12-09T08:25:30.448Z,796.00
2018-12-09T08:26:30.447Z,828.00
2018-12-09T08:27:30.426Z,904.00
2018-12-09T08:28:30.409Z,1172.00
2018-12-09T08:29:30.397Z,1156.00
2018-12-09T08:30:30.387Z,780.00
2018-12-09T08:31:30.389Z,712.00
2018-12-09T08:32:30.370Z,728.00
2018-12-09T08:33:30.361Z,712.00
2018-12-09T08:34:30.363Z,716.00
2018-12-09T08:35:30.334Z,768.00
2018-12-09T08:36:30.337Z,1032.00
2018-12-09T08:37:30.313Z,1360.00
2018-12-09T08:38:30.303Z,1368.00
2018-12-09T08:39:30.294Z,1440.00
2018-12-09T08:40:30.290Z,1216.00
2018-12-09T08:41:30.283Z,1300.00
2018-12-09T08:42:30.260Z,1232.00
2018-12-09T08:43:30.249Z,1348.00
2018-12-09T08:44:30.240Z,1888.00
2018-12-09T08:45:30.230Z,1828.00
2018-12-09T08:46:30.242Z,1864.00
2018-12-09T08:47:30.216Z,1388.00
2018-12-09T08:48:30.209Z,1412.00
2018-12-09T08:49:30.186Z,1736.00
2018-12-09T08:50:30.175Z,2324.00
2018-12-09T08:51:30.181Z,2728.00
2018-12-09T08:52:30.154Z,2328.00
2018-12-09T08:53:30.144Z,2240.00
2018-12-09T08:54:30.136Z,2124.00
2018-12-09T08:55:30.130Z,1788.00
2018-12-09T08:56:30.129Z,1696.00
2018-12-09T08:57:30.102Z,1756.00
2018-12-09T08:58:30.091Z,1920.00
2018-12-09T08:59:30.082Z,2000.00
2018-12-09T09:00:30.074Z,1888.00
2018-12-09T09:01:30.079Z,1772.00
2018-12-09T09:02:30.057Z,1836.00
2018-12-09T09:03:30.038Z,1880.00
2018-12-09T09:04:30.029Z,1660.00
2018-12-09T09:05:30.018Z,1768.00
2018-12-09T09:06:30.020Z,1864.00
2018-12-09T09:07:29.995Z,1952.00
2018-12-09T09:08:29.998Z,2828.00
2018-12-09T09:09:29.974Z,2720.00
2018-12-09T09:10:29.965Z,2584.00
2018-12-09T09:11:29.968Z,3316.00
2018-12-09T09:12:29.942Z,3368.00
2018-12-09T09:13:29.932Z,3752.00
2018-12-09T09:14:29.932Z,3560.00
2018-12-09T09:15:29.910Z,3476.00
2018-12-09T09:16:29.913Z,3548.00
2018-12-09T09:17:29.892Z,2928.00
2018-12-09T09:18:29.881Z,2576.00
2018-12-09T09:19:29.871Z,2716.00
2018-12-09T09:20:29.863Z,2820.00
2018-12-09T09:21:29.864Z,2308.00
2018-12-09T09:22:29.838Z,1820.00
2018-12-09T09:23:29.853Z,1600.00
2018-12-09T09:24:29.821Z,1612.00
2018-12-09T09:25:29.812Z,1620.00
2018-12-09T09:26:29.818Z,1688.00
2018-12-09T09:27:29.783Z,1656.00
2018-12-09T09:28:29.775Z,1948.00
2018-12-09T09:29:29.769Z,2076.00
2018-12-09T09:30:29.754Z,1592.00
2018-12-09T09:31:29.759Z,1512.00
2018-12-09T09:32:29.731Z,2040.00
2018-12-09T09:33:29.722Z,3784.00
2018-12-09T09:34:29.719Z,5032.00
2018-12-09T09:35:29.700Z,5400.00
2018-12-09T09:36:29.703Z,6044.00
2018-12-09T09:37:29.681Z,5404.00
2018-12-09T09:38:29.666Z,5040.00
2018-12-09T09:39:29.658Z,3876.00
2018-12-09T09:40:29.654Z,4444.00
2018-12-09T09:41:29.652Z,5244.00
2018-12-09T09:42:29.627Z,5092.00
2018-12-09T09:43:29.622Z,4720.00
2018-12-09T09:44:29.602Z,5492.00
2018-12-09T09:45:29.591Z,6068.00
2018-12-09T09:46:29.593Z,6148.00
2018-12-09T09:47:29.571Z,5916.00
2018-12-09T09:48:29.560Z,6844.00
2018-12-09T09:49:29.556Z,8180.00
2018-12-09T09:50:29.544Z,7520.00
2018-12-09T09:51:29.539Z,9044.00
2018-12-09T09:52:29.516Z,9960.00
2018-12-09T09:53:29.504Z,7996.00
2018-12-09T09:54:29.495Z,6256.00
2018-12-09T09:55:29.484Z,5120.00
2018-12-09T09:56:29.492Z,4472.00
2018-12-09T09:57:29.478Z,4808.00
2018-12-09T09:58:29.453Z,4988.00
2018-12-09T09:59:29.442Z,5504.00
2018-12-09T10:00:29.431Z,5384.00
2018-12-09T10:01:29.447Z,4924.00
2018-12-09T10:02:29.408Z,4140.00
2018-12-09T10:03:29.399Z,3408.00
2018-12-09T10:04:29.387Z,3416.00
2018-12-09T10:05:29.376Z,4664.00
2018-12-09T10:06:29.371Z,4776.00
2018-12-09T10:07:29.367Z,4968.00
2018-12-09T10:08:29.343Z,4892.00
2018-12-09T10:09:29.343Z,4628.00
2018-12-09T10:10:29.326Z,4160.00
2018-12-09T10:11:29.315Z,3120.00
2018-12-09T10:12:29.316Z,2764.00
2018-12-09T10:13:29.289Z,3008.00
2018-12-09T10:14:29.281Z,3300.00
2018-12-09T10:15:29.269Z,4096.00
2018-12-09T10:16:29.264Z,5592.00
2018-12-09T10:17:29.275Z,6532.00
2018-12-09T10:18:29.235Z,6060.00
2018-12-09T10:19:29.225Z,5848.00
2018-12-09T10:20:29.214Z,4664.00
2018-12-09T10:21:29.202Z,3076.00
2018-12-09T10:22:29.205Z,2752.00
2018-12-09T10:23:29.184Z,2168.00
2018-12-09T10:24:29.171Z,1780.00
2018-12-09T10:25:29.159Z,1364.00
2018-12-09T10:26:36.210Z,1264.00
2018-12-09T10:27:30.191Z,1280.00
2018-12-09T10:28:29.127Z,1568.00
2018-12-09T10:29:29.128Z,1744.00
2018-12-09T10:30:29.110Z,1564.00
2018-12-09T10:31:29.097Z,1332.00
2018-12-09T10:32:29.098Z,1484.00
2018-12-09T10:33:29.074Z,1768.00
2018-12-09T10:34:29.068Z,1804.00
2018-12-09T10:35:29.059Z,2100.00
2018-12-09T10:36:29.138Z,1820.00
2018-12-09T10:37:29.042Z,1544.00
2018-12-09T10:38:29.020Z,1592.00
2018-12-09T10:39:29.008Z,1808.00
2018-12-09T10:40:28.998Z,1964.00
2018-12-09T10:41:28.989Z,2040.00
2018-12-09T10:42:28.995Z,1972.00
2018-12-09T10:43:28.982Z,1720.00
2018-12-09T10:44:28.955Z,1976.00
2018-12-09T10:45:28.945Z,2324.00
2018-12-09T10:46:28.935Z,2724.00
2018-12-09T10:47:28.936Z,3216.00
2018-12-09T10:48:28.913Z,3288.00
2018-12-09T10:49:28.906Z,3392.00
2018-12-09T10:50:28.898Z,3544.00
2018-12-09T10:51:28.888Z,3044.00
2018-12-09T10:52:28.884Z,2860.00
2018-12-09T10:53:28.860Z,3288.00
2018-12-09T10:54:28.852Z,4292.00
2018-12-09T10:55:28.841Z,4500.00
2018-12-09T10:56:28.830Z,4372.00
2018-12-09T10:57:28.837Z,4260.00
2018-12-09T10:58:28.814Z,4188.00
2018-12-09T10:59:28.803Z,4168.00
2018-12-09T11:00:28.787Z,4200.00
2018-12-09T11:01:28.776Z,4148.00
2018-12-09T11:02:28.779Z,4064.00
2018-12-09T11:03:28.755Z,3896.00
2018-12-09T11:04:28.746Z,3244.00
2018-12-09T11:05:28.741Z,2948.00
2018-12-09T11:06:28.724Z,2828.00
2018-12-09T11:07:28.726Z,2496.00
2018-12-09T11:08:28.702Z,2552.00
2018-12-09T11:09:28.691Z,2980.00
2018-12-09T11:10:28.682Z,3480.00
2018-12-09T11:11:28.680Z,3752.00
2018-12-09T11:12:28.675Z,4060.00
2018-12-09T11:13:28.649Z,3676.00
2018-12-09T11:14:28.639Z,4016.00
2018-12-09T11:15:28.630Z,4148.00
2018-12-09T11:16:28.619Z,4040.00
2018-12-09T11:17:28.622Z,4076.00
2018-12-09T11:18:28.597Z,4264.00
2018-12-09T11:19:28.592Z,4380.00
2018-12-09T11:20:28.582Z,4300.00
2018-12-09T11:21:30.821Z,4828.00
2018-12-09T11:22:28.569Z,5144.00
2018-12-09T11:23:28.545Z,4632.00
2018-12-09T11:24:28.535Z,4064.00
2018-12-09T11:25:28.523Z,4292.00
2018-12-09T11:26:28.518Z,5476.00
2018-12-09T11:27:28.515Z,5684.00
2018-12-09T11:28:28.492Z,5268.00
2018-12-09T11:29:28.483Z,5860.00
2018-12-09T11:30:28.470Z,5344.00
2018-12-09T11:31:28.460Z,4772.00
2018-12-09T11:32:28.482Z,4212.00
2018-12-09T11:33:28.438Z,4888.00
2018-12-09T11:34:28.429Z,4572.00
2018-12-09T11:35:28.418Z,4364.00
2018-12-09T11:36:28.406Z,4456.00
2018-12-09T11:37:28.427Z,4776.00
2018-12-09T11:38:28.394Z,4492.00
2018-12-09T11:39:28.376Z,4176.00
2018-12-09T11:40:28.366Z,4240.00
2018-12-09T11:41:28.356Z,4708.00
2018-12-09T11:42:28.345Z,3056.00
2018-12-09T11:43:28.350Z,3228.00
2018-12-09T11:44:28.323Z,3956.00
2018-12-09T11:45:28.315Z,3792.00
2018-12-09T11:46:28.300Z,4632.00
2018-12-09T11:47:28.289Z,4496.00
2018-12-09T11:48:28.291Z,4732.00
2018-12-09T11:49:28.267Z,4560.00
2018-12-09T11:50:28.257Z,4120.00
2018-12-09T11:51:28.258Z,4872.00
2018-12-09T11:52:28.237Z,6124.00
2018-12-09T11:53:28.243Z,5720.00
2018-12-09T11:54:28.215Z,5704.00
2018-12-09T11:55:28.204Z,5892.00
2018-12-09T11:56:28.194Z,5016.00
2018-12-09T11:57:28.185Z,5888.00
2018-12-09T11:58:28.185Z,7468.00
2018-12-09T11:59:28.164Z,5888.00
2018-12-09T12:00:28.160Z,6720.00
2018-12-09T12:01:28.139Z,8592.00
2018-12-09T12:02:28.128Z,8240.00
2018-12-09T12:03:28.131Z,8268.00
2018-12-09T12:04:28.107Z,9112.00
2018-12-09T12:05:28.097Z,11080.00
2018-12-09T12:06:28.092Z,11472.00
2018-12-09T12:07:28.086Z,9772.00
2018-12-09T12:08:28.086Z,7500.00
2018-12-09T12:09:28.069Z,6992.00
2018-12-09T12:10:28.048Z,5372.00
2018-12-09T12:11:28.047Z,4484.00
2018-12-09T12:12:28.032Z,5144.00
2018-12-09T12:13:28.039Z,5404.00
2018-12-09T12:14:28.017Z,4668.00
2018-12-09T12:15:27.990Z,4368.00
2018-12-09T12:16:27.981Z,4760.00
2018-12-09T12:17:27.974Z,5296.00
2018-12-09T12:18:27.971Z,5056.00
2018-12-09T12:19:27.955Z,4564.00
2018-12-09T12:20:27.934Z,5028.00
2018-12-09T12:21:27.926Z,6200.00
2018-12-09T12:22:27.919Z,6524.00
2018-12-09T12:23:27.929Z,6180.00
2018-12-09T12:24:27.894Z,6432.00
2018-12-09T12:25:27.881Z,6552.00
2018-12-09T12:26:27.877Z,5788.00
2018-12-09T12:27:27.859Z,5692.00
2018-12-09T12:28:27.862Z,5548.00
2018-12-09T12:29:27.838Z,5252.00
2018-12-09T12:30:27.828Z,5544.00
2018-12-09T12:31:27.830Z,5768.00
2018-12-09T12:32:27.806Z,4984.00
2018-12-09T12:33:27.807Z,4708.00
2018-12-09T12:34:27.786Z,5276.00
2018-12-09T12:35:27.775Z,4824.00
2018-12-09T12:36:27.765Z,4532.00
2018-12-09T12:37:27.763Z,5376.00
2018-12-09T12:38:27.759Z,8284.00
2018-12-09T12:39:27.730Z,11164.00
2018-12-09T12:40:27.719Z,10336.00
2018-12-09T12:41:27.709Z,9744.00
2018-12-09T12:42:27.697Z,10112.00
2018-12-09T12:43:27.708Z,10452.00
2018-12-09T12:44:27.681Z,8888.00
2018-12-09T12:45:27.669Z,7720.00